Ana Sayfa
METAR-TAF:

METAR-TAF

Havaalanları :

Troy, Michigan, Amerika Birleşik Devletleri

Enlem: 42-32-35N, Boylam: 083-10-40W, yükseklik: 222 m

Güncel hava durumu gözlemi

Rapor saat 22:35 UTC de 24 dakika önce yapıldı.
Rüzgar güneybatıdan 10 kt ve 15 kt'a kadar ani rüzgarlar
Sıcaklık 10°C
Nem 93%
Basınç 997 hPa
Görüş mesafesi: 16.1 km
1800 ft yükseklikte çok bulutlu

METAR: KVLL 092235Z AUTO 22010G15KT 10SM OVC018 10/09 A2945 RMK AO2 T01000088

Saat: 17:59 (22:59 UTC)


TAF: eksik

4.000'den fazla havaalanı için hava durumu gözlemleri ve tahminleri (METAR ve TAF raporları).

Kullanılabilir istasyonlar harita üzerinde sarı ve kırmızı noktalarla gösterilir.

İstasyonun adını görmek için fareyi noktanın üzerinde gezdirin.

Sonrasında hava gözlem ve tahminlerini görmek için tıklayın.

Haritayı değiştirmek için: yaklaştırmak için siyah artı işaretli yeşil düğmeye ve uzaklaştırmak için de eksi işaretli düğmeye hızla tıklayın; bitişik haritalar için yeşil okları kullanın.


METAR-TAF: